Latest Weather Observations for Birdsville

IDQ60801

Issued at 4:02 pm EST Saturday 29 August 2015 (issued every 30 minutes, with the page automatically refreshed every 10 minutes)

About weather observations | Map of weather stations | Latest weather observations for QLD | Other Formats
Station Details ID: 038026 Name: BIRDSVILLE AIRPORT Lat: -25.90 Lon: 139.35 Height: 46.6 m
Data from the previous 72 hours. | See also: Recent months at Birdsville
Date/Time
EST
Temp
°C
App
Temp
°C
Dew
Point
Rel
Hum
%
Delta-T
°C
Wind Press
QNH
hPa
Press
MSL
hPa
Rain
since 9 am
mm
Dir
 
Spd
km/h
Gust
km/h
Spd
kts
Gust
kts
29/04:00pm 23.2 19.0 -4.0 16 11.4 SSE 9 19 5 10 1019.7 - 0.0
29/03:30pm 23.3 19.1 -3.9 16 11.4 SSE 9 22 5 12 1019.9 - 0.0
29/03:00pm 23.4 19.3 -3.0 17 11.3 SSW 9 17 5 9 1020.1 1020.2 0.0
29/02:30pm 22.9 19.1 -3.4 17 11.2 SE 7 13 4 7 1020.5 - 0.0
29/02:00pm 22.7 17.9 -2.8 18 10.9 SSW 13 20 7 11 1020.8 - 0.0
29/01:30pm 23.0 19.9 -2.6 18 11.0 S 4 11 2 6 1021.3 - 0.0
29/01:00pm 22.2 17.8 -2.5 19 10.6 SSW 11 15 6 8 1021.9 - 0.0
29/12:30pm 22.3 18.9 -1.7 20 10.5 S 6 11 3 6 1022.5 - 0.0
29/12:00pm 20.5 17.1 -1.9 22 9.5 SE 6 11 3 6 1023.0 1023.1 0.0
29/11:30am 20.1 15.9 -1.1 24 9.2 ESE 11 15 6 8 1023.3 - 0.0
29/11:00am 19.3 14.7 -0.7 26 8.7 SE 13 17 7 9 1023.6 - 0.0
29/10:30am 16.9 11.9 -1.2 29 7.6 SSE 15 20 8 11 1023.7 - 0.0
29/10:00am 15.8 10.1 -0.8 32 7.0 SSE 19 22 10 12 1023.8 - 0.0
29/09:30am 14.5 9.2 -0.8 35 6.3 SSE 17 20 9 11 1023.9 - 0.0
29/09:00am 13.1 8.5 -1.2 37 5.8 SSE 13 17 7 9 1023.7 1023.8 0.0
29/08:30am 12.9 7.5 -1.4 37 5.7 SSE 17 22 9 12 1023.2 - 0.0
29/08:00am 12.1 8.3 -1.1 40 5.3 S 9 11 5 6 1023.2 - 0.0
29/07:30am 11.2 7.9 -1.2 42 4.9 SE 6 9 3 5 1023.3 - 0.0
29/07:00am 11.7 8.1 -1.8 39 5.3 SE 7 13 4 7 1022.9 - 0.0
29/06:30am 12.1 7.5 -1.4 39 5.4 SE 13 17 7 9 1022.0 - 0.0
29/06:00am 12.1 7.0 -1.8 38 5.5 SSE 15 19 8 10 1021.9 1021.8 0.0
29/05:30am 12.1 7.8 -1.8 38 5.5 SSE 11 15 6 8 1021.9 - 0.0
29/05:00am 12.1 7.0 -1.8 38 5.5 SSE 15 19 8 10 1021.7 - 0.0
29/04:30am 11.9 7.2 -1.9 38 5.4 SSE 13 20 7 11 1021.6 - 0.0
29/04:00am 12.2 7.1 -2.0 37 5.6 SSE 15 19 8 10 1021.6 - 0.0
29/03:30am 12.3 7.2 -2.3 36 5.7 SSE 15 19 8 10 1021.7 - 0.0
29/03:00am 12.6 7.4 -2.4 35 5.8 SSE 15 20 8 11 1022.0 1021.9 0.0
29/02:30am 12.8 8.0 -2.6 34 6.0 S 13 17 7 9 1022.5 - 0.0
29/02:00am 12.2 7.8 -2.4 36 5.7 SSW 11 13 6 7 1022.7 - 0.0
29/01:30am 12.7 8.3 -2.3 35 5.9 SW 11 13 6 7 1022.9 - 0.0
29/01:00am 13.3 8.9 -2.6 33 6.2 SW 11 17 6 9 1022.9 - 0.0
29/12:30am 14.1 10.1 -2.3 32 6.5 S 9 9 5 5 1022.8 - 0.0
29/12:00am 14.6 11.2 -2.3 31 6.7 S 6 7 3 4 1022.8 1022.9 0.0
 
Date/Time
EST
Temp
°C
App
Temp
°C
Dew
Point
Rel
Hum
%
Delta-T
°C
Wind Press
QNH
hPa
Press
MSL
hPa
Rain
since 9 am
mm
Dir
 
Spd
km/h
Gust
km/h
Spd
kts
Gust
kts
28/11:30pm 14.4 11.0 -2.1 32 6.6 S 6 7 3 4 1022.9 - 0.0
28/11:00pm 15.0 11.6 -2.0 31 6.9 S 6 7 3 4 1023.0 - 0.0
28/10:30pm 15.5 11.4 -2.9 28 7.3 S 9 11 5 6 1023.2 - 0.0
28/10:00pm 16.7 12.6 -2.9 26 7.9 S 9 13 5 7 1022.8 - 0.0
28/09:30pm 17.2 12.7 -3.0 25 8.2 S 11 13 6 7 1022.8 - 0.0
28/09:00pm 18.2 12.6 -3.2 23 8.7 S 17 20 9 11 1022.5 1022.4 0.0
28/08:30pm 18.4 13.2 -3.1 23 8.8 S 15 19 8 10 1022.2 - 0.0
28/08:00pm 18.9 13.3 -3.3 22 9.1 S 17 19 9 10 1021.9 - 0.0
28/07:30pm 19.4 14.5 -3.5 21 9.4 SSW 13 17 7 9 1021.7 - 0.0
28/07:00pm 20.0 15.5 -3.6 20 9.7 SSW 11 15 6 8 1021.8 - 0.0
28/06:30pm 20.7 15.0 -3.7 19 10.1 SW 17 20 9 11 1021.7 - 0.0
28/06:00pm 21.4 16.4 -4.6 17 10.6 SW 13 17 7 9 1021.3 1021.3 0.0
28/05:30pm 21.7 17.8 -4.4 17 10.7 SSE 7 15 4 8 1021.0 - 0.0
28/05:00pm 22.3 19.3 -5.6 15 11.3 SE 2 7 1 4 1020.9 - 0.0
28/04:30pm 22.5 18.7 -5.4 15 11.4 SE 6 17 3 9 1020.5 - 0.0
28/04:00pm 22.6 18.3 -5.3 15 11.4 S 9 17 5 9 1020.6 - 0.0
28/03:30pm 22.3 18.4 -4.7 16 11.1 SW 7 19 4 10 1021.1 - 0.0
28/03:00pm 22.4 18.5 -4.6 16 11.1 S 7 22 4 12 1020.8 1020.8 0.0
28/02:30pm 22.0 17.0 -4.1 17 10.8 S 13 24 7 13 1021.4 - 0.0
28/02:00pm 21.8 18.2 -3.5 18 10.6 E 6 13 3 7 1021.9 - 0.0
28/01:30pm 21.5 16.6 -3.8 18 10.5 E 13 20 7 11 1022.4 - 0.0
28/01:00pm 21.0 16.4 -4.2 18 10.3 E 11 24 6 13 1023.0 - 0.0
28/12:30pm 21.4 17.4 -2.5 20 10.2 ENE 9 17 5 9 1023.3 - 0.0
28/12:00pm 20.8 15.9 -0.5 24 9.3 SE 15 22 8 12 1024.1 1024.2 0.0
28/11:30am 19.7 14.4 -0.9 25 8.9 SE 17 24 9 13 1024.8 - 0.0
28/11:00am 18.8 13.2 -0.1 28 8.3 SE 19 24 10 13 1024.9 - 0.0
28/10:30am 18.3 12.8 0.9 31 7.7 SE 19 24 10 13 1025.0 - 0.0
28/10:00am 16.9 12.3 1.4 35 6.9 SSE 15 20 8 11 1025.3 - 0.0
28/09:30am 14.8 9.4 1.3 40 5.9 SE 19 24 10 13 1025.4 - 0.0
28/09:00am 12.6 8.0 1.3 46 4.8 SE 15 20 8 11 1025.4 1025.4 0.0
28/08:30am 10.5 5.8 1.1 52 3.9 SE 15 19 8 10 1025.2 - 0.0
28/08:00am 8.7 5.1 0.4 56 3.3 S 9 13 5 7 1025.1 - 0.0
28/07:30am 7.2 3.5 0.0 60 2.8 SSW 9 11 5 6 1024.7 - 0.0
28/07:00am 6.3 3.0 -0.2 63 2.5 SSW 7 11 4 6 1024.5 - 0.0
28/06:30am 6.3 2.9 -0.7 61 2.7 SSW 7 9 4 5 1024.1 - 0.0
28/06:00am 5.8 2.0 -1.1 61 2.6 SSW 9 9 5 5 1024.0 1023.9 0.0
28/05:30am 6.2 2.0 -1.0 60 2.7 SSW 11 13 6 7 1023.7 - 0.0
28/05:00am 6.5 2.6 -1.2 58 2.9 SSW 9 13 5 7 1023.5 - 0.0
28/04:30am 6.9 3.0 -1.5 55 3.2 SSW 9 11 5 6 1023.4 - 0.0
28/04:00am 7.2 3.0 -1.2 55 3.2 SSW 11 13 6 7 1023.2 - 0.0
28/03:30am 7.6 3.3 -1.4 53 3.4 SSW 11 13 6 7 1023.2 - 0.0
28/03:00am 7.7 3.5 -1.0 54 3.3 SW 11 13 6 7 1023.3 1023.3 0.0
28/02:30am 8.1 3.5 -0.9 53 3.5 SW 13 15 7 8 1023.5 - 0.0
28/02:00am 8.6 4.0 -0.7 52 3.6 SW 13 13 7 7 1023.6 - 0.0
28/01:30am 8.2 4.4 -0.5 54 3.4 SW 9 11 5 6 1023.6 - 0.0
28/01:00am 8.9 4.7 -0.7 51 3.8 SW 11 13 6 7 1023.9 - 0.0
28/12:30am 10.2 5.2 -0.9 46 4.4 SW 15 17 8 9 1024.1 - 0.0
28/12:00am 10.5 6.8 0.0 48 4.2 SSW 9 15 5 8 1024.1 1024.1 0.0
 
Date/Time
EST
Temp
°C
App
Temp
°C
Dew
Point
Rel
Hum
%
Delta-T
°C
Wind Press
QNH
hPa
Press
MSL
hPa
Rain
since 9 am
mm
Dir
 
Spd
km/h
Gust
km/h
Spd
kts
Gust
kts
27/11:30pm 11.2 7.4 -0.6 44 4.7 SW 9 11 5 6 1024.1 - 0.0
27/11:00pm 11.8 7.5 -1.7 39 5.3 SW 11 13 6 7 1024.2 - 0.0
27/10:30pm 11.9 7.6 -1.3 40 5.3 SW 11 13 6 7 1024.1 - 0.0
27/10:00pm 12.8 8.6 -1.1 38 5.6 SSW 11 11 6 6 1024.0 - 0.0
27/09:30pm 13.3 8.6 -1.8 35 6.0 SSW 13 15 7 8 1023.9 - 0.0
27/09:00pm 13.4 8.6 0.1 40 5.5 SSW 15 15 8 8 1023.8 1023.8 0.0
27/08:30pm 14.0 10.4 0.3 39 5.8 SW 9 11 5 6 1023.7 - 0.0
27/08:00pm 15.7 11.1 -0.9 32 6.9 SW 13 15 7 8 1023.5 - 0.0
27/07:30pm 16.2 12.0 -0.9 31 7.2 SW 11 13 6 7 1023.2 - 0.0
27/07:00pm 17.6 13.3 -1.6 27 8.0 SW 11 15 6 8 1022.9 - 0.0
27/06:30pm 19.1 13.9 -2.5 23 9.0 SW 15 15 8 8 1022.6 - 0.0
27/06:00pm 20.6 15.0 -3.1 20 9.9 SW 17 22 9 12 1022.4 1022.3 0.0
27/05:30pm 21.0 15.7 -0.9 23 9.6 SW 17 20 9 11 1022.1 - 0.0
27/05:00pm 21.4 17.7 0.0 24 9.6 SW 9 17 5 9 1021.9 - 0.0
27/04:30pm 21.1 16.8 0.9 26 9.2 SW 13 20 7 11 1021.9 - 0.0
27/04:00pm 21.2 16.6 1.5 27 9.1 SW 15 24 8 13 1021.9 - 0.0
27/03:30pm 21.1 16.5 1.4 27 9.0 SW 15 24 8 13 1022.0 - 0.0
27/03:00pm 20.5 16.0 1.9 29 8.5 SW 15 20 8 11 1022.3 1022.3 0.0
27/02:30pm 20.1 15.7 2.5 31 8.2 S 15 24 8 13 1022.6 - 0.0
27/02:00pm 20.4 16.2 3.6 33 8.0 S 15 24 8 13 1023.1 - 0.0
27/01:30pm 20.4 16.2 4.0 34 7.9 SSW 15 22 8 12 1023.5 - 0.0
27/01:00pm 19.2 15.3 3.4 35 7.4 S 13 20 7 11 1024.0 - 0.0
27/12:30pm 19.0 14.2 2.8 34 7.5 S 17 22 9 12 1024.6 - 0.0
27/12:00pm 18.3 13.8 4.1 39 6.7 SSE 17 24 9 13 1025.1 1025.1 0.0
27/11:30am 18.2 13.2 4.7 41 6.5 S 20 26 11 14 1025.3 - 0.0
27/11:00am 17.4 12.1 5.0 44 5.9 SSE 22 28 12 15 1025.6 - 0.0
27/10:30am 16.6 11.4 5.6 48 5.3 SSE 22 28 12 15 1025.6 - 0.0
27/10:00am 15.4 10.6 5.6 52 4.7 SSE 20 26 11 14 1025.7 - 0.0
27/09:30am 14.3 9.9 6.4 59 3.8 SSE 19 26 10 14 1025.5 - 0.0
27/09:00am 12.8 9.1 6.4 65 3.0 S 15 20 8 11 1025.2 1025.2 1.4
27/08:30am 11.0 7.7 6.6 74 2.1 SSW 13 15 7 8 1024.9 - 1.4
27/08:00am 9.4 6.5 6.7 83 1.3 SSW 11 11 6 6 1024.5 - 1.4
27/07:30am 8.3 5.5 6.8 90 0.7 SSW 11 15 6 8 1024.1 - 1.4
27/07:00am 8.7 6.0 7.5 92 0.6 SW 11 11 6 6 1023.7 - 1.4
27/06:30am 8.9 6.7 7.8 93 0.5 SW 9 9 5 5 1023.3 - 1.4
27/06:00am 8.5 6.1 7.1 91 0.7 SW 9 9 5 5 1022.8 1022.7 1.4
27/05:30am 9.4 7.3 8.2 92 0.6 SW 9 9 5 5 1022.7 - 1.4
27/05:00am 9.4 7.3 8.2 92 0.6 SW 9 9 5 5 1022.4 - 1.4
27/04:30am 10.1 8.2 8.9 92 0.6 SW 9 11 5 6 1022.5 - 1.2
27/04:00am 10.0 8.0 8.8 92 0.6 SW 9 13 5 7 1022.4 - 1.2
27/03:30am 10.3 8.4 8.9 91 0.7 SW 9 9 5 5 1022.0 - 1.2
27/03:00am 11.0 9.2 9.3 89 0.8 SW 9 11 5 6 1021.8 1021.8 1.2
27/02:30am 11.9 9.8 9.6 86 1.2 SW 11 15 6 8 1022.5 - 1.2
27/02:00am 12.1 10.4 9.8 86 1.2 SSW 9 11 5 6 1022.8 - 1.2
27/01:30am 12.8 10.8 10.0 83 1.4 SSW 11 13 6 7 1022.9 - 1.2
27/01:00am 12.8 11.4 10.9 88 1.0 SSE 9 11 5 6 1023.2 - 1.2
27/12:30am 12.9 11.8 10.8 87 1.1 SSE 7 9 4 5 1023.2 - 1.2
27/12:00am 12.8 12.0 11.0 89 0.9 SSE 6 6 3 3 1023.1 1023.2 1.2
 
Date/Time
EST
Temp
°C
App
Temp
°C
Dew
Point
Rel
Hum
%
Delta-T
°C
Wind Press
QNH
hPa
Press
MSL
hPa
Rain
since 9 am
mm
Dir
 
Spd
km/h
Gust
km/h
Spd
kts
Gust
kts
26/11:30pm 12.9 11.8 10.6 86 1.2 SSE 7 9 4 5 1023.4 - 1.2
26/11:00pm 13.0 13.1 10.2 83 1.4 CALM 0 0 0 0 1023.3 - 1.2
26/10:30pm 13.1 11.4 9.9 81 1.6 SSE 9 11 5 6 1023.5 - 1.2
26/10:00pm 13.3 11.6 9.9 80 1.8 SSE 9 11 5 6 1023.7 - 1.2
26/09:30pm 13.1 11.0 9.9 81 1.6 SSE 11 15 6 8 1023.3 - 1.2
26/09:00pm 12.8 9.6 10.0 83 1.4 S 17 20 9 11 1023.2 1023.2 1.2
26/08:30pm 12.8 8.8 10.3 85 1.3 S 22 26 12 14 1023.2 - 1.2
26/08:00pm 14.1 13.0 12.0 87 1.1 NNE 9 11 5 6 1022.6 - 1.0
26/07:30pm 14.0 12.8 11.7 86 1.2 NNE 9 13 5 7 1022.5 - 1.0
26/07:00pm 14.2 12.6 11.5 84 1.4 NNE 11 13 6 7 1022.7 - 1.0
26/06:30pm 14.4 13.1 11.2 81 1.7 NNE 9 11 5 6 1022.1 - 1.0
26/06:00pm 15.1 14.5 10.3 73 2.5 NNE 4 6 2 3 1021.9 1021.8 0.6
26/05:30pm 15.2 13.9 10.0 71 2.7 NNE 7 9 4 5 1021.9 - 0.6
26/05:00pm 15.5 14.4 9.8 69 3.0 NNE 6 7 3 4 1021.5 - 0.6
26/04:30pm 15.3 15.2 9.4 68 3.0 CALM 0 0 0 0 1021.3 - 0.6

Other Formats:

Comma delimited format used in spreadsheet applications
http://www.bom.gov.au/fwo/IDQ60801/IDQ60801.95482.axf

JavaScript Object Notation format (JSON) in row-major order
http://www.bom.gov.au/fwo/IDQ60801/IDQ60801.95482.json